Time;durP1;ratioP1;P1;durP2;ratioP2;P2;SDS_P1;SDS_P2;PMS_P1;PMS_P2;Temp;Humidity;BMP_temperature;BMP_pressure;BME280_temperature;BME280_humidity;BME280_pressure;Samples;Min_cycle;Max_cycle;Signal;HPM_P1;HPM_P2
2022/10/25 00:01:19;;;;;;;3.23;0.57;;;;;;;14.31;100.00;100173.41;5016208;28;20451;-51
2022/10/25 00:03:46;;;;;;;1.43;0.40;;;;;;;14.16;100.00;100175.84;5016857;28;20453;-50
2022/10/25 00:06:13;;;;;;;0.50;0.40;;;;;;;14.24;100.00;100175.47;5023032;28;20818;-51
2022/10/25 00:08:40;;;;;;;4.33;0.50;;;;;;;14.10;100.00;100175.22;5021676;28;20509;-51
2022/10/25 00:11:09;;;;;;;0.73;0.47;;;;;;;14.09;100.00;100178.84;5018055;28;20448;-51
2022/10/25 00:13:35;;;;;;;0.60;0.60;;;;;;;14.06;100.00;100178.97;5027768;28;20526;-51
2022/10/25 00:16:02;;;;;;;0.60;0.40;;;;;;;13.98;100.00;100186.44;5017349;28;20452;-51
2022/10/25 00:18:28;;;;;;;0.80;0.50;;;;;;;13.93;100.00;100182.19;5025406;28;20474;-51
2022/10/25 00:20:55;;;;;;;6.07;1.30;;;;;;;13.83;100.00;100194.22;5017341;28;20452;-51
2022/10/25 00:23:21;;;;;;;0.40;0.30;;;;;;;13.86;100.00;100194.09;5015349;28;20473;-51
2022/10/25 00:25:47;;;;;;;0.47;0.30;;;;;;;13.91;100.00;100191.22;5021122;28;20448;-51
2022/10/25 00:28:14;;;;;;;0.40;0.30;;;;;;;13.87;100.00;100189.63;5022363;28;20451;-51
2022/10/25 00:30:40;;;;;;;0.40;0.40;;;;;;;13.69;100.00;100180.59;5017711;28;20490;-52
2022/10/25 00:33:07;;;;;;;8.33;0.50;;;;;;;13.60;100.00;100176.53;5015300;28;20570;-51
2022/10/25 00:35:35;;;;;;;1.70;0.40;;;;;;;13.53;100.00;100174.16;5021101;28;20456;-50
2022/10/25 00:38:01;;;;;;;0.73;0.50;;;;;;;13.52;100.00;100175.97;5022242;28;20486;-50
2022/10/25 00:40:28;;;;;;;0.30;0.20;;;;;;;13.61;100.00;100185.41;5017963;28;20455;-51
2022/10/25 00:42:54;;;;;;;0.60;0.30;;;;;;;13.65;100.00;100189.66;5026344;28;20863;-51
2022/10/25 00:45:26;;;;;;;0.57;0.57;;;;;;;13.81;100.00;100184.53;5018200;28;20525;-52
2022/10/25 00:48:00;;;;;;;1.90;0.53;;;;;;;13.92;100.00;100190.28;5016002;28;20455;-51
2022/10/25 00:50:43;;;;;;;0.43;0.30;;;;;;;13.96;100.00;100201.69;5018173;28;20941;-51
2022/10/25 00:53:31;;;;;;;1.47;0.47;;;;;;;13.97;100.00;100198.09;5022171;28;20554;-51
2022/10/25 00:56:20;;;;;;;0.40;0.30;;;;;;;13.93;100.00;100195.56;5022447;28;20513;-51
2022/10/25 00:58:50;;;;;;;0.40;0.30;;;;;;;13.90;100.00;100198.38;5021082;28;20484;-51
2022/10/25 01:01:17;;;;;;;0.50;0.50;;;;;;;13.93;100.00;100202.69;5015168;28;20458;-51
2022/10/25 01:03:47;;;;;;;0.70;0.60;;;;;;;13.92;100.00;100203.63;5018313;28;20990;-51
2022/10/25 01:06:20;;;;;;;0.40;0.30;;;;;;;13.69;100.00;100212.63;5019852;28;20479;-51
2022/10/25 01:08:48;;;;;;;4.33;0.50;;;;;;;13.67;100.00;100214.50;5019140;28;20448;-51
2022/10/25 01:11:15;;;;;;;0.70;0.47;;;;;;;13.37;100.00;100216.66;5032221;28;20497;-51
2022/10/25 01:13:42;;;;;;;1.17;0.70;;;;;;;13.56;100.00;100220.28;5030074;28;20868;-52
2022/10/25 01:16:21;;;;;;;0.50;0.50;;;;;;;13.67;100.00;100225.19;5021591;28;20455;-51
2022/10/25 01:19:22;;;;;;;1.93;0.70;;;;;;;13.76;100.00;100222.13;5026215;28;20477;-51
2022/10/25 01:21:55;;;;;;;0.60;0.40;;;;;;;13.72;100.00;100209.00;5026254;28;20447;-51
2022/10/25 01:24:41;;;;;;;1.27;0.60;;;;;;;13.73;100.00;100211.59;5022481;28;20470;-52
2022/10/25 01:27:35;;;;;;;0.50;0.30;;;;;;;13.68;100.00;100216.25;5022222;28;20929;-50
2022/10/25 01:30:10;;;;;;;1.00;0.60;;;;;;;13.74;100.00;100210.66;5018951;28;20454;-51
2022/10/25 01:32:52;;;;;;;0.50;0.50;;;;;;;13.75;100.00;100216.88;5021930;28;20479;-51
2022/10/25 01:35:24;;;;;;;0.77;0.53;;;;;;;13.78;100.00;100214.06;5025715;28;20492;-50
2022/10/25 01:38:13;;;;;;;1.17;0.40;;;;;;;13.91;100.00;100210.78;5025189;28;20455;-51
2022/10/25 01:41:07;;;;;;;0.50;0.40;;;;;;;13.95;100.00;100211.53;5025691;28;20513;-51
2022/10/25 01:43:40;;;;;;;0.60;0.40;;;;;;;13.89;100.00;100211.81;5012210;28;20527;-52
2022/10/25 01:46:24;;;;;;;0.50;0.50;;;;;;;13.83;100.00;100210.25;5025277;28;20598;-51
2022/10/25 01:49:01;;;;;;;1.60;0.40;;;;;;;13.74;100.00;100218.69;5022143;28;20452;-51
2022/10/25 01:51:28;;;;;;;0.43;0.30;;;;;;;13.61;100.00;100223.66;5018478;28;20451;-51
2022/10/25 01:53:54;;;;;;;4.47;0.83;;;;;;;13.39;100.00;100221.94;5020296;28;20496;-51
2022/10/25 01:56:26;;;;;;;0.60;0.37;;;;;;;13.25;100.00;100218.03;5007639;28;20498;-51
2022/10/25 01:59:30;;;;;;;1.37;0.60;;;;;;;13.17;100.00;100225.47;5023795;28;20553;-51
2022/10/25 02:02:37;;;;;;;0.40;0.30;;;;;;;13.32;100.00;100218.66;5021031;28;20881;-51
2022/10/25 02:05:31;;;;;;;0.30;0.20;;;;;;;13.25;100.00;100220.69;4931653;29;20452;-51
2022/10/25 02:08:11;;;;;;;0.30;0.20;;;;;;;13.31;100.00;100227.63;5018268;28;20514;-51
2022/10/25 02:10:43;;;;;;;9.07;0.30;;;;;;;13.48;100.00;100229.59;5020299;28;20543;-50
2022/10/25 02:13:09;;;;;;;15.80;1.40;;;;;;;13.53;100.00;100230.25;5030910;28;20530;-51
2022/10/25 02:15:39;;;;;;;0.60;0.40;;;;;;;13.52;100.00;100228.50;5016754;28;20465;-51
2022/10/25 02:18:13;;;;;;;2.43;0.63;;;;;;;13.39;100.00;100222.81;5029462;28;20456;-51
2022/10/25 02:20:42;;;;;;;0.40;0.30;;;;;;;13.20;100.00;100222.69;5018102;28;20448;-51
2022/10/25 02:23:14;;;;;;;0.57;0.37;;;;;;;13.32;100.00;100230.22;5018259;28;20469;-50
2022/10/25 02:25:42;;;;;;;0.60;0.60;;;;;;;13.48;100.00;100224.25;5017692;28;20461;-51
2022/10/25 02:28:11;;;;;;;26.33;1.37;;;;;;;13.38;100.00;100221.06;5017642;28;20507;-51
2022/10/25 02:30:41;;;;;;;0.50;0.30;;;;;;;13.36;100.00;100222.06;5022983;28;20452;-51
2022/10/25 02:33:07;;;;;;;0.63;0.40;;;;;;;13.23;100.00;100222.56;5024430;28;20467;-51
2022/10/25 02:35:34;;;;;;;0.40;0.30;;;;;;;13.28;100.00;100209.03;5001716;28;20491;-51
2022/10/25 02:38:00;;;;;;;1.43;0.90;;;;;;;13.42;100.00;100222.69;5017517;28;20515;-51
2022/10/25 02:40:27;;;;;;;0.93;0.50;;;;;;;13.53;100.00;100222.22;5024619;28;20544;-51
2022/10/25 02:42:53;;;;;;;0.80;0.57;;;;;;;13.49;100.00;100216.16;5028997;28;20534;-51
2022/10/25 02:45:20;;;;;;;0.50;0.40;;;;;;;13.67;100.00;100218.97;5018817;28;20498;-51
2022/10/25 02:47:46;;;;;;;0.80;0.80;;;;;;;13.69;100.00;100220.66;5017288;28;20452;-51
2022/10/25 02:50:13;;;;;;;0.60;0.50;;;;;;;13.74;100.00;100218.69;5022679;28;20461;-51
2022/10/25 02:52:40;;;;;;;1.80;0.77;;;;;;;13.80;100.00;100214.84;5023883;28;20475;-51
2022/10/25 02:55:07;;;;;;;0.77;0.30;;;;;;;13.84;100.00;100221.78;5018948;28;20568;-52
2022/10/25 02:57:34;;;;;;;7.00;0.50;;;;;;;13.85;100.00;100219.09;5016998;28;20457;-51
2022/10/25 03:00:03;;;;;;;0.93;0.60;;;;;;;13.72;100.00;100215.19;5021422;28;20970;-51
2022/10/25 03:02:30;;;;;;;0.90;0.73;;;;;;;13.56;100.00;100222.09;5023593;28;21024;-51
2022/10/25 03:04:56;;;;;;;3.80;0.70;;;;;;;13.59;100.00;100224.66;5020218;28;20452;-51
2022/10/25 03:07:23;;;;;;;0.40;0.30;;;;;;;13.52;100.00;100223.16;5017130;28;20494;-51
2022/10/25 03:09:49;;;;;;;0.90;0.50;;;;;;;13.52;100.00;100220.50;5020722;28;20886;-52
2022/10/25 03:12:15;;;;;;;1.07;0.80;;;;;;;13.43;100.00;100218.19;5028319;28;20487;-52
2022/10/25 03:14:42;;;;;;;6.37;1.17;;;;;;;13.31;100.00;100216.94;5020550;28;20492;-52
2022/10/25 03:17:10;;;;;;;3.27;0.40;;;;;;;13.47;100.00;100225.19;5008016;28;20458;-51
2022/10/25 03:19:36;;;;;;;0.73;0.73;;;;;;;13.61;100.00;100230.81;5020252;28;20882;-52
2022/10/25 03:22:02;;;;;;;4.10;0.87;;;;;;;13.45;100.00;100227.91;5023380;28;20993;-52
2022/10/25 03:24:29;;;;;;;4.63;0.80;;;;;;;13.41;100.00;100230.75;5020054;28;20447;-52
2022/10/25 03:26:55;;;;;;;8.23;0.50;;;;;;;13.44;100.00;100234.19;5016118;28;20455;-52
2022/10/25 03:29:21;;;;;;;0.73;0.53;;;;;;;13.32;100.00;100238.22;5019885;28;20534;-52
2022/10/25 03:31:48;;;;;;;0.60;0.53;;;;;;;13.34;100.00;100238.16;5023116;28;20452;-52
2022/10/25 03:34:14;;;;;;;2.60;1.10;;;;;;;13.20;100.00;100238.72;5002556;28;20561;-52
2022/10/25 03:36:40;;;;;;;5.80;0.70;;;;;;;13.19;100.00;100241.44;5016430;28;20434;-51
2022/10/25 03:39:07;;;;;;;2.50;1.00;;;;;;;13.11;100.00;100240.84;5019572;28;20506;-52
2022/10/25 03:41:33;;;;;;;2.53;0.77;;;;;;;12.73;100.00;100238.72;5009131;28;20452;-51
2022/10/25 03:44:00;;;;;;;2.43;1.10;;;;;;;12.75;100.00;100231.56;5019313;28;21063;-52
2022/10/25 03:46:26;;;;;;;0.93;0.80;;;;;;;12.68;100.00;100227.38;5024397;28;20462;-52
2022/10/25 03:48:53;;;;;;;0.67;0.67;;;;;;;12.67;100.00;100230.97;5021480;28;20452;-51
2022/10/25 03:51:19;;;;;;;0.50;0.50;;;;;;;12.61;100.00;100241.88;5016150;28;20455;-51
2022/10/25 03:53:45;;;;;;;2.73;0.83;;;;;;;12.45;100.00;100244.22;5018855;28;20451;-52
2022/10/25 03:56:12;;;;;;;1.73;0.57;;;;;;;12.41;100.00;100244.41;5022571;28;20457;-52
2022/10/25 03:58:38;;;;;;;0.40;0.30;;;;;;;12.30;100.00;100241.25;5019973;28;20463;-51
2022/10/25 04:01:07;;;;;;;0.67;0.63;;;;;;;12.35;100.00;100241.97;5015976;28;20518;-51
2022/10/25 04:03:34;;;;;;;0.40;0.30;;;;;;;12.28;100.00;100241.31;5018629;28;20792;-51
2022/10/25 04:06:01;;;;;;;0.67;0.47;;;;;;;12.20;100.00;100234.53;5022538;28;20449;-51
2022/10/25 04:08:27;;;;;;;0.40;0.30;;;;;;;12.22;100.00;100243.34;5020173;28;20517;-51
2022/10/25 04:10:53;;;;;;;0.47;0.37;;;;;;;12.15;100.00;100245.34;5017989;28;20528;-53
2022/10/25 04:13:20;;;;;;;0.40;0.40;;;;;;;12.11;100.00;100241.06;5028915;28;20487;-53
2022/10/25 04:15:46;;;;;;;0.53;0.33;;;;;;;12.13;100.00;100242.75;5015583;28;20544;-53
2022/10/25 04:18:13;;;;;;;0.40;0.30;;;;;;;12.07;100.00;100250.97;5027377;28;20447;-53
2022/10/25 04:20:39;;;;;;;1.33;1.23;;;;;;;12.06;100.00;100254.56;5015871;28;20550;-53
2022/10/25 04:23:05;;;;;;;1.30;1.13;;;;;;;11.94;100.00;100255.00;4999157;28;20473;-53
2022/10/25 04:25:32;;;;;;;0.40;0.30;;;;;;;11.97;100.00;100257.53;5022729;28;20456;-54
2022/10/25 04:27:59;;;;;;;0.87;0.87;;;;;;;11.90;100.00;100252.47;5021458;28;20876;-54
2022/10/25 04:30:25;;;;;;;0.50;0.40;;;;;;;11.91;100.00;100257.72;5015672;28;20510;-53
2022/10/25 04:32:52;;;;;;;1.70;0.47;;;;;;;11.83;100.00;100255.34;5016432;28;21064;-54
2022/10/25 04:35:18;;;;;;;0.60;0.60;;;;;;;12.32;100.00;100255.41;5022217;28;20868;-53
2022/10/25 04:37:44;;;;;;;11.93;0.97;;;;;;;11.99;100.00;100255.69;5023206;28;20486;-54
2022/10/25 04:40:11;;;;;;;3.70;1.53;;;;;;;11.78;100.00;100251.06;5019577;28;20455;-54
2022/10/25 04:42:38;;;;;;;0.40;0.30;;;;;;;11.83;100.00;100254.47;5032622;28;21024;-53
2022/10/25 04:45:04;;;;;;;1.20;1.10;;;;;;;12.01;100.00;100264.50;5019559;28;20447;-53
2022/10/25 04:47:31;;;;;;;1.67;0.30;;;;;;;12.23;100.00;100267.28;5002370;28;20460;-54
2022/10/25 04:49:58;;;;;;;0.70;0.60;;;;;;;12.32;100.00;100263.41;5019474;28;21023;-54
2022/10/25 04:52:24;;;;;;;1.70;0.40;;;;;;;12.40;100.00;100258.66;5019444;28;20476;-53
2022/10/25 04:54:51;;;;;;;0.80;0.60;;;;;;;12.38;100.00;100260.53;5026040;28;20488;-54
2022/10/25 04:57:17;;;;;;;0.73;0.53;;;;;;;12.59;100.00;100256.19;5026343;28;20456;-54
2022/10/25 04:59:43;;;;;;;0.50;0.40;;;;;;;12.80;100.00;100266.06;5019638;28;20459;-54
2022/10/25 05:02:11;;;;;;;2.50;0.60;;;;;;;12.90;100.00;100258.56;5019706;28;20836;-54
2022/10/25 05:04:37;;;;;;;0.50;0.30;;;;;;;13.11;100.00;100256.84;5025791;28;20457;-54
2022/10/25 05:07:04;;;;;;;3.17;1.17;;;;;;;13.14;100.00;100254.06;5025757;28;20952;-53
2022/10/25 05:09:30;;;;;;;0.97;0.60;;;;;;;13.27;100.00;100258.00;5019541;28;20459;-54
2022/10/25 05:11:56;;;;;;;0.97;0.40;;;;;;;13.38;100.00;100260.25;5031187;28;20957;-54
2022/10/25 05:14:23;;;;;;;0.73;0.60;;;;;;;13.46;100.00;100260.81;5019943;28;20499;-54
2022/10/25 05:16:49;;;;;;;0.53;0.53;;;;;;;13.46;100.00;100266.16;5019088;28;20522;-54
2022/10/25 05:19:15;;;;;;;5.93;0.93;;;;;;;13.46;100.00;100264.38;5020605;28;20451;-53
2022/10/25 05:21:42;;;;;;;0.93;0.60;;;;;;;13.52;100.00;100261.44;5019060;28;20790;-53
2022/10/25 05:24:08;;;;;;;26.80;0.80;;;;;;;13.59;100.00;100264.72;5024619;28;20452;-53
2022/10/25 05:26:35;;;;;;;0.77;0.77;;;;;;;13.57;100.00;100258.59;5025666;28;20501;-53
2022/10/25 05:29:01;;;;;;;0.50;0.50;;;;;;;13.57;100.00;100269.28;5002770;28;20455;-53
2022/10/25 05:31:33;;;;;;;0.70;0.60;;;;;;;13.64;100.00;100271.59;5018615;28;20986;-53
2022/10/25 05:34:00;;;;;;;0.87;0.87;;;;;;;13.73;100.00;100273.03;5023328;28;20827;-54
2022/10/25 05:36:28;;;;;;;48.00;1.90;;;;;;;13.77;100.00;100271.97;5025614;28;20617;-54
2022/10/25 05:38:55;;;;;;;1.00;0.53;;;;;;;13.84;100.00;100273.47;5021069;28;20513;-53
2022/10/25 05:41:21;;;;;;;0.60;0.57;;;;;;;13.98;100.00;100271.97;5025200;28;20956;-54
2022/10/25 05:43:48;;;;;;;2.70;1.13;;;;;;;13.83;100.00;100277.03;5023189;28;20627;-54
2022/10/25 05:46:17;;;;;;;3.43;0.90;;;;;;;13.88;100.00;100280.41;5025043;28;20422;-54
2022/10/25 05:48:44;;;;;;;8.70;1.63;;;;;;;13.91;100.00;100277.59;5021490;28;20590;-54
2022/10/25 05:51:15;;;;;;;0.70;0.70;;;;;;;13.94;100.00;100279.25;5018489;28;20451;-53
2022/10/25 05:54:09;;;;;;;0.70;0.70;;;;;;;14.04;100.00;100288.63;5018323;28;20483;-53
2022/10/25 05:56:36;;;;;;;9.50;0.70;;;;;;;14.11;100.00;100284.75;5023837;28;20452;-54
2022/10/25 05:59:10;;;;;;;0.87;0.70;;;;;;;14.15;100.00;100293.53;5024696;28;20505;-53
2022/10/25 06:01:42;;;;;;;8.03;0.87;;;;;;;14.10;100.00;100296.38;5021022;28;20434;-53
2022/10/25 06:04:10;;;;;;;0.80;0.67;;;;;;;14.17;100.00;100307.69;5018486;28;20455;-53
2022/10/25 06:06:38;;;;;;;0.60;0.60;;;;;;;14.18;100.00;100309.44;5021877;28;20979;-53
2022/10/25 06:09:05;;;;;;;1.73;0.77;;;;;;;14.22;100.00;100314.56;5025702;28;20457;-53
2022/10/25 06:11:32;;;;;;;4.90;2.20;;;;;;;14.13;100.00;100314.13;5023149;28;20829;-52
2022/10/25 06:13:59;;;;;;;1.00;1.00;;;;;;;14.15;100.00;100309.56;5026770;28;20480;-53
2022/10/25 06:16:25;;;;;;;2.90;0.70;;;;;;;14.13;100.00;100319.47;5022384;28;20495;-53
2022/10/25 06:18:52;;;;;;;0.93;0.90;;;;;;;14.21;100.00;100333.34;5024987;28;20483;-53
2022/10/25 06:21:23;;;;;;;2.63;1.13;;;;;;;14.23;100.00;100334.16;5022431;28;20888;-53
2022/10/25 06:23:50;;;;;;;3.80;1.23;;;;;;;14.23;100.00;100331.47;5017425;28;20475;-53
2022/10/25 06:26:20;;;;;;;1.90;1.80;;;;;;;14.31;100.00;100333.84;5019614;28;20515;-53
2022/10/25 06:28:49;;;;;;;2.43;0.83;;;;;;;14.40;100.00;100347.69;5024552;28;20499;-53
2022/10/25 06:31:17;;;;;;;8.77;0.80;;;;;;;14.36;100.00;100346.06;5024142;28;20456;-53
2022/10/25 06:33:45;;;;;;;0.70;0.70;;;;;;;14.38;100.00;100346.00;5017389;28;20476;-53
2022/10/25 06:36:15;;;;;;;2.17;0.80;;;;;;;14.36;100.00;100346.06;5017745;28;20496;-53
2022/10/25 06:38:43;;;;;;;1.67;1.57;;;;;;;14.36;100.00;100343.38;5018271;28;20502;-53
2022/10/25 06:41:30;;;;;;;1.50;1.40;;;;;;;14.29;100.00;100349.94;5024227;28;20467;-53
2022/10/25 06:43:58;;;;;;;2.40;0.90;;;;;;;14.46;100.00;100358.13;5020709;28;20473;-53
2022/10/25 06:46:33;;;;;;;4.00;1.33;;;;;;;14.59;100.00;100358.47;5024003;28;20448;-54
2022/10/25 06:49:09;;;;;;;0.60;0.53;;;;;;;14.58;100.00;100355.88;5024055;28;20455;-53
2022/10/25 06:51:35;;;;;;;1.13;1.13;;;;;;;14.68;100.00;100354.53;5017715;28;20525;-54
2022/10/25 06:54:06;;;;;;;4.00;1.40;;;;;;;14.67;100.00;100363.50;5017282;28;20476;-53
2022/10/25 06:56:33;;;;;;;7.53;1.30;;;;;;;14.74;100.00;100370.31;5022565;28;20591;-54
2022/10/25 06:59:01;;;;;;;3.40;1.43;;;;;;;14.77;100.00;100376.38;5023912;28;20451;-53
2022/10/25 07:01:27;;;;;;;7.03;0.97;;;;;;;14.79;100.00;100376.31;5017888;28;20455;-53
2022/10/25 07:03:54;;;;;;;11.63;1.20;;;;;;;14.81;100.00;100374.47;5017123;28;20473;-53
2022/10/25 07:06:26;;;;;;;1.30;1.10;;;;;;;14.70;100.00;100374.06;5022166;28;20452;-54
2022/10/25 07:09:00;;;;;;;6.90;1.80;;;;;;;14.62;100.00;100377.06;5023822;28;20459;-53
2022/10/25 07:11:29;;;;;;;1.10;1.00;;;;;;;14.76;100.00;100387.16;5021159;28;20999;-53
2022/10/25 07:13:57;;;;;;;1.60;1.50;;;;;;;14.79;100.00;100387.00;5026360;28;20517;-53
2022/10/25 07:16:25;;;;;;;6.50;1.57;;;;;;;14.85;100.00;100392.13;5020807;28;21055;-53
2022/10/25 07:18:51;;;;;;;2.50;1.30;;;;;;;14.87;100.00;100395.59;5024739;28;21027;-53
2022/10/25 07:21:20;;;;;;;4.40;1.30;;;;;;;14.90;100.00;100395.44;5020864;28;20465;-53
2022/10/25 07:23:48;;;;;;;10.53;1.00;;;;;;;14.87;100.00;100392.03;5016465;28;21050;-53
2022/10/25 07:26:20;;;;;;;5.40;1.30;;;;;;;14.94;100.00;100402.41;5018729;28;20456;-53
2022/10/25 07:28:48;;;;;;;2.40;1.40;;;;;;;15.09;100.00;100409.75;5023343;28;20460;-53
2022/10/25 07:31:20;;;;;;;5.80;1.93;;;;;;;15.24;100.00;100410.88;5022534;28;20578;-53
2022/10/25 07:33:48;;;;;;;2.37;0.70;;;;;;;15.24;100.00;100400.16;5016678;28;20467;-53
2022/10/25 07:36:14;;;;;;;10.30;1.40;;;;;;;15.35;100.00;100408.56;5016482;28;20463;-53
2022/10/25 07:38:41;;;;;;;11.73;1.17;;;;;;;15.43;100.00;100402.84;5023278;28;20463;-53
2022/10/25 07:41:08;;;;;;;3.27;1.57;;;;;;;15.46;100.00;100407.16;5022857;28;20459;-53
2022/10/25 07:43:36;;;;;;;0.93;0.87;;;;;;;15.46;100.00;100405.38;5022517;28;20472;-54
2022/10/25 07:46:04;;;;;;;2.40;0.97;;;;;;;15.66;100.00;100404.47;5023213;28;20422;-53
2022/10/25 07:48:30;;;;;;;2.50;1.30;;;;;;;15.50;100.00;100408.78;5017807;28;20456;-54
2022/10/25 07:50:56;;;;;;;9.73;2.93;;;;;;;15.55;100.00;100410.31;5016359;28;20456;-53
2022/10/25 07:53:23;;;;;;;1.63;0.80;;;;;;;15.61;100.00;100410.03;5021907;28;20948;-53
2022/10/25 07:55:50;;;;;;;4.97;1.03;;;;;;;15.63;100.00;100418.91;5022497;28;20491;-54
2022/10/25 07:58:17;;;;;;;3.23;0.90;;;;;;;15.70;100.00;100414.97;5017870;28;20951;-54
2022/10/25 08:00:44;;;;;;;17.97;2.33;;;;;;;16.05;100.00;100417.75;5016094;28;20427;-54
2022/10/25 08:03:12;;;;;;;0.73;0.73;;;;;;;15.83;100.00;100427.78;5021046;28;20530;-54
2022/10/25 08:05:38;;;;;;;4.53;1.90;;;;;;;16.09;100.00;100413.97;5022671;28;20456;-54
2022/10/25 08:08:05;;;;;;;2.63;0.83;;;;;;;16.03;100.00;100416.94;5018014;28;20586;-54
2022/10/25 08:10:31;;;;;;;5.40;1.83;;;;;;;16.08;100.00;100427.47;5017261;28;20462;-53
2022/10/25 08:12:58;;;;;;;3.30;1.50;;;;;;;16.22;100.00;100425.84;5010651;28;20487;-54
2022/10/25 08:15:24;;;;;;;1.53;0.80;;;;;;;15.93;100.00;100431.75;5015601;28;20499;-54
2022/10/25 08:17:58;;;;;;;1.60;1.23;;;;;;;16.16;100.00;100425.25;5027575;28;21010;-54
2022/10/25 08:20:25;;;;;;;1.53;1.30;;;;;;;16.49;100.00;100434.31;5015755;28;20922;-53
2022/10/25 08:23:12;;;;;;;3.87;0.63;;;;;;;16.34;100.00;100431.53;5016238;28;21057;-53
2022/10/25 08:25:39;;;;;;;2.73;1.13;;;;;;;16.67;100.00;100432.53;5016137;28;20491;-52
2022/10/25 08:28:05;;;;;;;8.83;1.13;;;;;;;16.55;100.00;100423.25;5006388;28;20452;-52
2022/10/25 08:30:32;;;;;;;0.80;0.77;;;;;;;16.45;100.00;100426.50;5027072;28;20431;-52
2022/10/25 08:32:58;;;;;;;3.57;2.23;;;;;;;16.58;100.00;100423.13;5005076;28;20521;-50
2022/10/25 08:35:24;;;;;;;1.20;1.10;;;;;;;16.54;100.00;100426.03;5015810;28;21338;-52
2022/10/25 08:37:51;;;;;;;3.20;0.97;;;;;;;16.76;100.00;100428.53;5015701;28;21096;-50
2022/10/25 08:40:23;;;;;;;5.73;1.80;;;;;;;16.66;100.00;100428.09;5022442;28;20456;-49
2022/10/25 08:43:19;;;;;;;1.57;1.00;;;;;;;16.65;100.00;100425.47;5027324;28;20862;-52
2022/10/25 08:46:09;;;;;;;3.13;0.97;;;;;;;16.85;100.00;100434.25;5020947;28;20869;-50
2022/10/25 08:48:42;;;;;;;1.57;0.60;;;;;;;16.85;100.00;100434.25;5020726;28;20448;-51
2022/10/25 08:51:34;;;;;;;3.70;0.80;;;;;;;16.75;100.00;100433.03;5022328;28;20455;-50
2022/10/25 08:54:24;;;;;;;1.20;1.10;;;;;;;16.90;100.00;100444.78;5022044;28;20482;-52
2022/10/25 08:56:58;;;;;;;0.93;0.70;;;;;;;16.95;100.00;100450.75;5018730;28;21142;-50
2022/10/25 08:59:44;;;;;;;0.60;0.60;;;;;;;16.83;100.00;100448.72;5022303;28;20818;-50
2022/10/25 09:02:17;;;;;;;38.57;1.33;;;;;;;16.93;100.00;100447.31;5021839;28;20471;-51
2022/10/25 09:04:43;;;;;;;0.93;0.90;;;;;;;17.04;100.00;100450.28;5017245;28;20530;-51
2022/10/25 09:07:40;;;;;;;3.33;0.87;;;;;;;17.04;100.00;100452.13;5015588;28;20487;-51
2022/10/25 09:10:16;;;;;;;0.97;0.93;;;;;;;17.14;100.00;100446.19;5016907;28;20430;-50
2022/10/25 09:12:54;;;;;;;1.43;1.33;;;;;;;17.15;100.00;100458.66;5009164;28;20545;-53
2022/10/25 09:15:52;;;;;;;4.77;0.80;;;;;;;17.15;100.00;100452.41;5021915;28;21002;-53
2022/10/25 09:18:28;;;;;;;0.60;0.53;;;;;;;17.31;100.00;100456.03;5010722;28;20423;-53
2022/10/25 09:20:57;;;;;;;0.73;0.43;;;;;;;17.27;100.00;100461.63;5016357;28;20455;-53
2022/10/25 09:23:30;;;;;;;8.33;0.77;;;;;;;17.10;100.00;100457.16;5015572;28;20997;-53
2022/10/25 09:26:19;;;;;;;1.27;0.60;;;;;;;17.22;100.00;100453.81;5023482;28;20452;-53
2022/10/25 09:28:56;;;;;;;0.70;0.70;;;;;;;17.28;100.00;100456.19;5025770;28;20506;-53
2022/10/25 09:31:24;;;;;;;5.00;1.50;;;;;;;17.71;99.95;100457.44;5025685;28;20582;-53
2022/10/25 09:33:58;;;;;;;1.53;0.83;;;;;;;17.57;100.00;100456.44;5019716;28;20457;-53
2022/10/25 09:36:36;;;;;;;15.10;0.63;;;;;;;17.47;100.00;100456.91;5018608;28;20503;-53
2022/10/25 09:39:14;;;;;;;2.53;0.73;;;;;;;17.72;99.84;100455.63;5022465;28;20449;-53
2022/10/25 09:41:47;;;;;;;3.90;1.37;;;;;;;18.05;98.32;100460.91;5029740;28;20447;-53
2022/10/25 09:44:39;;;;;;;12.63;1.17;;;;;;;18.35;97.15;100460.97;5020084;28;20452;-54
2022/10/25 09:47:31;;;;;;;1.33;0.47;;;;;;;18.15;96.05;100458.56;5021483;28;20430;-54
2022/10/25 09:50:03;;;;;;;0.90;0.47;;;;;;;18.45;95.09;100467.56;5018443;28;20501;-54
2022/10/25 09:52:40;;;;;;;0.53;0.50;;;;;;;18.31;95.70;100470.19;5018183;28;20474;-54
2022/10/25 09:55:10;;;;;;;0.70;0.70;;;;;;;18.29;95.93;100461.34;5022975;28;20427;-54
2022/10/25 09:57:37;;;;;;;0.70;0.70;;;;;;;18.17;95.77;100472.81;5007658;28;20521;-53
2022/10/25 10:00:04;;;;;;;0.80;0.57;;;;;;;18.04;96.93;100465.44;5021328;28;20892;-54
2022/10/25 10:02:31;;;;;;;7.60;1.53;;;;;;;18.14;95.95;100475.69;5018098;28;20884;-54
2022/10/25 10:04:57;;;;;;;2.07;0.53;;;;;;;18.33;96.52;100481.72;5021875;28;20839;-53
2022/10/25 10:07:32;;;;;;;22.97;1.13;;;;;;;18.30;95.64;100484.59;5024805;28;20503;-54
2022/10/25 10:10:04;;;;;;;1.07;0.47;;;;;;;18.20;95.40;100492.31;5022640;28;20455;-54
2022/10/25 10:12:52;;;;;;;1.63;0.93;;;;;;;18.17;96.11;100484.44;5030011;28;20451;-54
2022/10/25 10:15:26;;;;;;;1.20;0.80;;;;;;;18.30;95.59;100479.22;5000102;28;20925;-54
2022/10/25 10:18:17;;;;;;;2.57;0.93;;;;;;;17.98;96.39;100481.06;5029619;28;20805;-54
2022/10/25 10:20:59;;;;;;;3.43;0.50;;;;;;;18.20;95.78;100481.56;5017831;28;20448;-54
2022/10/25 10:23:28;;;;;;;0.60;0.57;;;;;;;17.99;95.91;100485.47;5017856;28;20492;-54
2022/10/25 10:25:55;;;;;;;2.00;1.53;;;;;;;18.10;97.03;100485.75;5022952;28;20535;-53
2022/10/25 10:28:22;;;;;;;5.50;0.70;;;;;;;18.20;95.36;100478.88;5024658;28;20459;-53
2022/10/25 10:30:53;;;;;;;0.90;0.80;;;;;;;17.96;96.27;100481.16;5020467;28;20430;-53
2022/10/25 10:33:21;;;;;;;0.80;0.80;;;;;;;18.24;96.00;100472.38;5017356;28;21131;-53
2022/10/25 10:35:52;;;;;;;2.93;0.90;;;;;;;18.37;95.32;100477.06;5020250;28;20492;-53
2022/10/25 10:38:26;;;;;;;0.80;0.60;;;;;;;18.27;95.34;100477.59;5024535;28;20444;-53
2022/10/25 10:41:12;;;;;;;2.10;0.70;;;;;;;18.09;95.17;100480.44;5022774;28;20455;-54
2022/10/25 10:43:39;;;;;;;13.10;1.07;;;;;;;18.32;95.70;100469.22;5019339;28;20533;-53
2022/10/25 10:46:13;;;;;;;0.90;0.80;;;;;;;18.36;95.42;100465.41;5017297;28;20448;-54
2022/10/25 10:48:43;;;;;;;1.23;1.13;;;;;;;18.35;95.68;100464.53;5034669;28;20518;-54
2022/10/25 10:51:16;;;;;;;0.73;0.73;;;;;;;18.39;95.73;100464.38;5029059;28;20464;-54
2022/10/25 10:54:26;;;;;;;0.73;0.73;;;;;;;18.64;94.89;100459.31;5024116;28;20598;-53
2022/10/25 10:57:41;;;;;;;4.37;1.13;;;;;;;18.57;93.85;100468.69;5020919;28;20541;-53
2022/10/25 11:00:20;;;;;;;2.30;1.20;;;;;;;18.58;93.28;100462.31;4999369;28;21008;-53
2022/10/25 11:02:47;;;;;;;1.43;1.03;;;;;;;18.82;92.68;100458.22;5023901;28;20535;-53
2022/10/25 11:05:26;;;;;;;6.73;0.90;;;;;;;18.72;92.66;100461.53;5023172;28;20474;-53
2022/10/25 11:07:56;;;;;;;0.50;0.40;;;;;;;18.90;93.05;100465.81;5022379;28;20511;-54
2022/10/25 11:10:32;;;;;;;0.80;0.80;;;;;;;19.08;92.21;100462.03;5025226;28;20452;-54
2022/10/25 11:13:16;;;;;;;1.50;1.20;;;;;;;18.96;91.65;100460.09;5029930;28;20483;-54
2022/10/25 11:16:01;;;;;;;2.83;1.40;;;;;;;18.91;92.76;100463.06;5016707;28;20459;-53
2022/10/25 11:18:55;;;;;;;1.40;1.20;;;;;;;18.96;91.15;100462.78;5027835;28;20513;-54
2022/10/25 11:21:59;;;;;;;7.03;0.90;;;;;;;19.00;91.23;100461.63;5021564;28;20457;-54
2022/10/25 11:24:43;;;;;;;6.43;1.60;;;;;;;19.03;90.74;100463.25;5020173;28;20869;-54
2022/10/25 11:27:34;;;;;;;1.83;1.60;;;;;;;18.95;91.59;100455.66;5023469;28;20494;-54
2022/10/25 11:30:13;;;;;;;1.50;0.93;;;;;;;19.11;91.64;100458.28;5023520;28;20447;-54
2022/10/25 11:32:45;;;;;;;1.13;1.03;;;;;;;19.10;90.91;100462.81;5020805;28;20876;-54
2022/10/25 11:35:43;;;;;;;12.63;0.97;;;;;;;19.20;91.37;100461.28;5016523;28;20509;-54
2022/10/25 11:38:14;;;;;;;3.27;0.80;;;;;;;18.76;90.02;100457.69;5016379;28;20427;-54
2022/10/25 11:41:18;;;;;;;0.67;0.60;;;;;;;19.10;89.23;100456.53;5023748;28;21280;-54